createdAt,value
2022-09-26T00:00:53.576Z,993.82
2022-09-26T00:05:53.478Z,993.80
2022-09-26T00:10:53.433Z,993.69
2022-09-26T00:15:53.367Z,993.61
2022-09-26T00:20:53.380Z,993.51
2022-09-26T00:25:53.306Z,993.44
2022-09-26T00:30:53.354Z,993.30
2022-09-26T00:35:53.200Z,993.14
2022-09-26T00:40:53.241Z,993.09
2022-09-26T00:45:53.146Z,993.00
2022-09-26T00:50:53.044Z,992.85
2022-09-26T00:55:52.946Z,992.86
2022-09-26T01:00:52.925Z,992.77
2022-09-26T01:05:52.835Z,992.65
2022-09-26T01:10:52.760Z,992.63
2022-09-26T01:15:52.711Z,992.59
2022-09-26T01:20:52.642Z,992.50
2022-09-26T01:25:52.701Z,992.41
2022-09-26T01:30:52.672Z,992.38
2022-09-26T01:35:52.563Z,992.31
2022-09-26T01:40:52.533Z,992.24
2022-09-26T01:45:52.445Z,992.22
2022-09-26T01:50:52.339Z,992.23
2022-09-26T01:55:52.281Z,992.14
2022-09-26T02:00:52.347Z,992.03
2022-09-26T02:05:52.215Z,992.05
2022-09-26T02:10:52.147Z,991.97
2022-09-26T02:15:52.196Z,991.84
2022-09-26T02:20:52.034Z,991.79
2022-09-26T02:25:51.977Z,991.73
2022-09-26T02:30:51.910Z,991.63
2022-09-26T02:35:51.843Z,991.48
2022-09-26T02:40:51.814Z,991.35
2022-09-26T02:45:51.783Z,991.32
2022-09-26T02:50:51.759Z,991.27
2022-09-26T02:55:51.701Z,991.19
2022-09-26T03:00:51.663Z,991.01
2022-09-26T03:05:51.590Z,990.95
2022-09-26T03:10:51.517Z,990.77
2022-09-26T03:15:51.399Z,990.73
2022-09-26T03:20:51.359Z,990.66
2022-09-26T03:25:51.311Z,990.56
2022-09-26T03:30:51.220Z,990.45
2022-09-26T03:35:54.507Z,990.29
2022-09-26T03:40:51.286Z,990.31
2022-09-26T03:45:51.171Z,990.28
2022-09-26T03:50:51.057Z,990.22
2022-09-26T03:55:50.982Z,990.15
2022-09-26T04:00:50.983Z,990.02
2022-09-26T04:05:59.743Z,989.90
2022-09-26T04:10:50.782Z,989.80
2022-09-26T04:15:50.751Z,989.77
2022-09-26T04:20:50.832Z,989.67
2022-09-26T04:25:50.791Z,989.59
2022-09-26T04:30:50.854Z,989.46
2022-09-26T04:35:50.546Z,989.41
2022-09-26T04:40:50.666Z,989.38
2022-09-26T04:45:50.762Z,989.29
2022-09-26T04:50:50.495Z,989.20
2022-09-26T04:55:50.346Z,989.14
2022-09-26T05:00:50.341Z,989.12
2022-09-26T05:05:50.199Z,989.02
2022-09-26T05:10:50.159Z,988.91
2022-09-26T05:15:50.265Z,988.88
2022-09-26T05:20:50.280Z,988.76
2022-09-26T05:25:49.985Z,988.74
2022-09-26T05:30:50.104Z,988.72
2022-09-26T05:35:50.046Z,988.67
2022-09-26T05:40:50.006Z,988.61
2022-09-26T05:45:49.766Z,988.55
2022-09-26T05:50:49.725Z,988.47
2022-09-26T05:55:49.665Z,988.46
2022-09-26T06:00:49.638Z,988.48
2022-09-26T06:05:49.583Z,988.36
2022-09-26T06:10:49.642Z,988.35
2022-09-26T06:15:49.572Z,988.32
2022-09-26T06:20:49.493Z,988.16
2022-09-26T06:25:52.809Z,988.11
2022-09-26T06:30:49.367Z,988.03
2022-09-26T06:35:49.308Z,987.91
2022-09-26T06:40:49.279Z,987.82
2022-09-26T06:45:49.110Z,987.70
2022-09-26T06:50:49.051Z,987.64
2022-09-26T06:55:48.988Z,987.51
2022-09-26T07:00:49.084Z,987.46
2022-09-26T07:05:48.878Z,987.36
2022-09-26T07:10:48.830Z,987.38
2022-09-26T07:15:50.008Z,987.28
2022-09-26T07:20:52.142Z,987.23
2022-09-26T07:25:49.741Z,987.20
2022-09-26T07:30:48.697Z,987.19
2022-09-26T07:35:48.594Z,987.24
2022-09-26T07:40:48.731Z,987.15
2022-09-26T07:45:48.486Z,987.06
2022-09-26T07:50:48.378Z,987.05
2022-09-26T07:55:48.314Z,986.98
2022-09-26T08:00:48.264Z,986.91
2022-09-26T08:05:48.232Z,986.85
2022-09-26T08:10:48.157Z,986.70
2022-09-26T08:15:48.349Z,986.69
2022-09-26T08:20:48.156Z,986.68
2022-09-26T08:25:48.071Z,986.67
2022-09-26T08:30:51.499Z,986.64
2022-09-26T08:35:47.916Z,986.60
2022-09-26T08:40:47.952Z,986.63
2022-09-26T08:45:48.174Z,986.52
2022-09-26T08:50:47.721Z,986.72
2022-09-26T08:55:47.742Z,986.65
2022-09-26T09:00:47.600Z,986.54
2022-09-26T09:05:47.534Z,986.51
2022-09-26T09:10:47.480Z,986.57
2022-09-26T09:15:47.479Z,986.35
2022-09-26T09:20:47.367Z,986.48
2022-09-26T09:25:47.325Z,986.24
2022-09-26T09:30:47.483Z,986.18
2022-09-26T09:35:47.305Z,986.14
2022-09-26T09:40:47.384Z,986.07
2022-09-26T09:45:47.133Z,985.98
2022-09-26T09:50:50.437Z,985.85
2022-09-26T09:55:48.088Z,985.86
2022-09-26T10:00:51.054Z,985.85
2022-09-26T10:05:46.983Z,985.82
2022-09-26T10:10:46.933Z,985.61
2022-09-26T10:15:46.825Z,985.48
2022-09-26T10:20:46.712Z,985.41
2022-09-26T10:25:46.648Z,985.25
2022-09-26T10:30:46.651Z,985.09
2022-09-26T10:35:46.538Z,984.88
2022-09-26T10:40:46.709Z,984.93
2022-09-26T10:45:46.511Z,984.81
2022-09-26T10:50:47.471Z,984.71
2022-09-26T10:55:46.367Z,984.70
2022-09-26T11:00:46.330Z,984.60
2022-09-26T11:05:46.358Z,984.54
2022-09-26T11:10:46.155Z,984.33
2022-09-26T11:15:46.103Z,984.40
2022-09-26T11:20:46.057Z,984.24
2022-09-26T11:25:45.987Z,984.19
2022-09-26T11:30:45.963Z,984.09
2022-09-26T11:35:45.879Z,984.06
2022-09-26T11:40:45.930Z,983.90
2022-09-26T11:45:47.651Z,983.78
2022-09-26T11:50:49.228Z,983.67
2022-09-26T11:55:45.657Z,983.60
2022-09-26T12:00:45.688Z,983.57
2022-09-26T12:05:45.554Z,983.59
2022-09-26T12:10:45.513Z,983.41
2022-09-26T12:15:45.545Z,983.39
2022-09-26T12:20:45.400Z,983.21
2022-09-26T12:25:45.325Z,983.16
2022-09-26T12:30:45.348Z,983.00
2022-09-26T12:35:45.296Z,982.91
2022-09-26T12:40:45.263Z,982.76
2022-09-26T12:45:53.132Z,982.80
2022-09-26T12:50:46.060Z,982.76
2022-09-26T12:55:45.098Z,982.80
2022-09-26T13:00:44.974Z,982.77
2022-09-26T13:05:44.902Z,982.74
2022-09-26T13:10:44.837Z,982.88
2022-09-26T13:15:44.802Z,982.89
2022-09-26T13:20:44.717Z,982.94
2022-09-26T13:25:49.277Z,982.89
2022-09-26T13:30:45.657Z,982.76
2022-09-26T13:35:44.605Z,982.74
2022-09-26T13:40:44.655Z,982.68
2022-09-26T13:45:44.534Z,982.61
2022-09-26T13:50:44.475Z,982.58
2022-09-26T13:55:44.428Z,982.52
2022-09-26T14:00:44.308Z,982.53
2022-09-26T14:05:44.267Z,982.45
2022-09-26T14:10:44.163Z,982.37
2022-09-26T14:15:44.123Z,982.40
2022-09-26T14:20:44.049Z,982.38
2022-09-26T14:25:44.067Z,982.31
2022-09-26T14:30:44.014Z,982.30
2022-09-26T14:35:43.939Z,982.17
2022-09-26T14:40:44.019Z,982.18
2022-09-26T14:45:43.877Z,981.99
2022-09-26T14:50:43.754Z,981.96
2022-09-26T14:55:43.699Z,981.84
2022-09-26T15:00:43.637Z,981.80
2022-09-26T15:05:43.562Z,981.64
2022-09-26T15:10:43.513Z,981.69
2022-09-26T15:15:43.513Z,981.60
2022-09-26T15:20:43.406Z,981.54
2022-09-26T15:25:43.348Z,981.56
2022-09-26T15:30:43.342Z,981.50
2022-09-26T15:35:43.313Z,981.39
2022-09-26T15:40:44.341Z,981.34
2022-09-26T15:45:43.190Z,981.33
2022-09-26T15:50:43.131Z,981.30
2022-09-26T15:55:43.072Z,981.10
2022-09-26T16:00:43.010Z,981.21
2022-09-26T16:05:51.795Z,981.23
2022-09-26T16:10:42.877Z,981.27
2022-09-26T16:15:42.860Z,981.12
2022-09-26T16:20:42.715Z,981.10
2022-09-26T16:25:42.662Z,981.12
2022-09-26T16:30:42.736Z,981.02
2022-09-26T16:35:42.555Z,981.06
2022-09-26T16:40:42.589Z,980.90
2022-09-26T16:45:42.459Z,980.85
2022-09-26T16:50:42.393Z,980.83
2022-09-26T16:55:43.374Z,980.67
2022-09-26T17:00:42.341Z,980.60
2022-09-26T17:05:42.304Z,980.54
2022-09-26T17:10:42.235Z,980.61
2022-09-26T17:15:42.201Z,980.55
2022-09-26T17:20:42.097Z,980.42
2022-09-26T17:25:41.988Z,980.45
2022-09-26T17:30:41.965Z,980.31
2022-09-26T17:35:41.877Z,980.29
2022-09-26T17:40:41.860Z,980.19
2022-09-26T17:45:41.745Z,980.17
2022-09-26T17:50:41.776Z,980.14
2022-09-26T17:55:41.736Z,980.14
2022-09-26T18:00:41.663Z,980.02
2022-09-26T18:05:41.574Z,980.03
2022-09-26T18:10:41.507Z,980.02
2022-09-26T18:15:41.510Z,979.96
2022-09-26T18:20:41.567Z,979.84
2022-09-26T18:25:41.511Z,979.90
2022-09-26T18:30:41.295Z,979.75
2022-09-26T18:35:41.223Z,979.80
2022-09-26T18:40:41.210Z,979.78
2022-09-26T18:45:41.125Z,979.89
2022-09-26T18:50:41.286Z,979.87
2022-09-26T18:55:41.066Z,979.80
2022-09-26T19:00:40.963Z,979.82
2022-09-26T19:05:41.929Z,979.78
2022-09-26T19:10:40.843Z,979.86
2022-09-26T19:15:40.867Z,979.85
2022-09-26T19:20:40.734Z,979.84
2022-09-26T19:25:40.720Z,979.76
2022-09-26T19:30:40.750Z,979.72
2022-09-26T19:35:40.586Z,979.63
2022-09-26T19:40:43.738Z,979.68
2022-09-26T19:45:41.527Z,979.62
2022-09-26T19:50:40.376Z,979.59
2022-09-26T19:55:40.319Z,979.62
2022-09-26T20:00:40.275Z,979.61
2022-09-26T20:05:40.238Z,979.58
2022-09-26T20:10:40.247Z,979.58
2022-09-26T20:15:40.133Z,979.55
2022-09-26T20:20:40.070Z,979.53
2022-09-26T20:25:40.033Z,979.43
2022-09-26T20:30:40.026Z,979.44
2022-09-26T20:35:39.897Z,979.34
2022-09-26T20:40:39.866Z,979.31
2022-09-26T20:45:39.884Z,979.30
2022-09-26T20:50:39.786Z,979.29
2022-09-26T20:55:44.004Z,979.24
2022-09-26T21:00:39.663Z,979.31
2022-09-26T21:05:39.603Z,979.22
2022-09-26T21:10:39.534Z,979.19
2022-09-26T21:15:39.458Z,979.19
2022-09-26T21:20:39.371Z,979.20
2022-09-26T21:25:39.323Z,979.21
2022-09-26T21:30:39.305Z,979.15
2022-09-26T21:35:39.201Z,979.05
2022-09-26T21:40:39.247Z,978.99
2022-09-26T21:45:39.198Z,978.95
2022-09-26T21:50:39.086Z,978.94
2022-09-26T21:55:39.025Z,978.84
2022-09-26T22:00:38.956Z,978.84
2022-09-26T22:05:38.900Z,978.78
2022-09-26T22:10:38.784Z,978.75
2022-09-26T22:15:38.754Z,978.69
2022-09-26T22:20:38.674Z,978.71
2022-09-26T22:25:42.695Z,978.64
2022-09-26T22:30:38.582Z,978.60
2022-09-26T22:35:38.683Z,978.61
2022-09-26T22:40:38.660Z,978.56
2022-09-26T22:45:38.444Z,978.55
2022-09-26T22:50:38.417Z,978.58
2022-09-26T22:55:38.365Z,978.54
2022-09-26T23:00:38.244Z,978.62
2022-09-26T23:05:38.183Z,978.64
2022-09-26T23:10:38.124Z,978.74
2022-09-26T23:15:38.059Z,978.69
2022-09-26T23:20:38.023Z,978.81
2022-09-26T23:25:37.938Z,978.79
2022-09-26T23:30:37.928Z,978.90
2022-09-26T23:35:37.853Z,978.97
2022-09-26T23:40:37.941Z,978.93
2022-09-26T23:45:37.801Z,978.92
2022-09-26T23:50:37.799Z,978.93
2022-09-26T23:55:37.628Z,978.95
